Time;durP1;ratioP1;P1;durP2;ratioP2;P2;SDS_P1;SDS_P2;PMS_P1;PMS_P2;Temp;Humidity;BMP_temperature;BMP_pressure;BME280_temperature;BME280_humidity;BME280_pressure;Samples;Min_cycle;Max_cycle;Signal;HPM_P1;HPM_P2
2022/09/18 00:01:09;;;;;;;;;;;;;;;10.86;100.00;101579.59;5020672;28;19921;-39
2022/09/18 00:03:34;;;;;;;;;;;;;;;10.80;100.00;101576.50;5020525;28;19936;-39
2022/09/18 00:06:04;;;;;;;;;;;;;;;10.80;100.00;101573.84;5020398;28;19920;-39
2022/09/18 00:08:29;;;;;;;;;;;;;;;10.78;100.00;101573.13;5021816;28;19921;-39
2022/09/18 00:10:54;;;;;;;;;;;;;;;10.76;100.00;101571.59;5020912;28;19924;-39
2022/09/18 00:13:20;;;;;;;;;;;;;;;10.70;100.00;101559.66;5021907;28;20008;-40
2022/09/18 00:15:52;;;;;;;;;;;;;;;10.75;100.00;101565.41;5020754;28;19992;-39
2022/09/18 00:18:17;;;;;;;;;;;;;;;10.75;100.00;101569.91;5020745;28;19917;-39
2022/09/18 00:20:43;;;;;;;;;;;;;;;10.76;100.00;101574.25;5019781;28;20435;-39
2022/09/18 00:23:08;;;;;;;;;;;;;;;10.77;100.00;101570.59;5021510;28;19917;-39
2022/09/18 00:25:33;;;;;;;;;;;;;;;10.81;100.00;101578.19;5021040;28;20346;-39
2022/09/18 00:27:58;;;;;;;;;;;;;;;10.84;100.00;101574.38;5012066;28;19913;-39
2022/09/18 00:30:23;;;;;;;;;;;;;;;10.86;100.00;101566.22;5015739;28;20360;-39
2022/09/18 00:32:48;;;;;;;;;;;;;;;10.86;100.00;101567.06;5020452;28;19991;-40
2022/09/18 00:35:14;;;;;;;;;;;;;;;10.85;100.00;101569.91;5018963;28;20039;-39
2022/09/18 00:37:39;;;;;;;;;;;;;;;10.83;100.00;101570.88;5021617;28;19914;-40
2022/09/18 00:40:04;;;;;;;;;;;;;;;10.84;100.00;101574.38;5021052;28;19929;-39
2022/09/18 00:42:29;;;;;;;;;;;;;;;10.86;100.00;101575.06;5019781;28;19917;-40
2022/09/18 00:44:55;;;;;;;;;;;;;;;10.88;100.00;101569.59;5013846;28;20256;-40
2022/09/18 00:47:28;;;;;;;;;;;;;;;10.87;100.00;101587.47;5016428;28;20126;-38
2022/09/18 00:49:53;;;;;;;;;;;;;;;10.90;100.00;101575.66;5014339;28;20009;-38
2022/09/18 00:52:20;;;;;;;;;;;;;;;10.96;100.00;101580.41;5013894;28;20019;-39
2022/09/18 00:54:50;;;;;;;;;;;;;;;10.93;100.00;101594.91;5014161;28;20012;-38
2022/09/18 00:57:21;;;;;;;;;;;;;;;10.90;100.00;101583.66;5019700;28;20465;-38
2022/09/18 00:59:48;;;;;;;;;;;;;;;10.89;100.00;101580.13;5020611;28;20138;-39
2022/09/18 01:02:13;;;;;;;;;;;;;;;10.90;100.00;101584.50;5020519;28;19924;-39
2022/09/18 01:04:39;;;;;;;;;;;;;;;10.93;100.00;101583.34;5015758;28;19924;-39
2022/09/18 01:07:24;;;;;;;;;;;;;;;10.91;100.00;101580.00;5018054;28;20027;-39
2022/09/18 01:10:02;;;;;;;;;;;;;;;10.90;100.00;101583.66;5020370;28;20059;-39
2022/09/18 01:12:27;;;;;;;;;;;;;;;10.88;100.00;101588.28;5009162;28;20282;-39
2022/09/18 01:14:52;;;;;;;;;;;;;;;10.87;100.00;101575.94;5019794;28;20357;-39
2022/09/18 01:17:24;;;;;;;;;;;;;;;10.86;100.00;101563.56;5028312;28;19940;-38
2022/09/18 01:20:04;;;;;;;;;;;;;;;10.83;100.00;101560.19;5009843;28;19921;-38
2022/09/18 01:22:30;;;;;;;;;;;;;;;10.83;100.00;101578.06;5016593;28;19979;-40
2022/09/18 01:25:01;;;;;;;;;;;;;;;10.82;100.00;101581.72;5020087;28;19948;-39
2022/09/18 01:27:32;;;;;;;;;;;;;;;10.81;100.00;101578.19;5017661;28;19921;-39
2022/09/18 01:30:07;;;;;;;;;;;;;;;10.82;100.00;101560.31;5020161;28;20295;-39
2022/09/18 01:32:42;;;;;;;;;;;;;;;10.77;100.00;101566.09;5018870;28;20364;-39
2022/09/18 01:35:13;;;;;;;;;;;;;;;10.76;100.00;101568.91;5018329;28;19983;-39
2022/09/18 01:37:53;;;;;;;;;;;;;;;10.75;100.00;101562.75;5011960;28;19921;-39
2022/09/18 01:40:18;;;;;;;;;;;;;;;10.71;100.00;101566.69;5009368;28;19917;-38
2022/09/18 01:42:46;;;;;;;;;;;;;;;10.69;100.00;101560.63;5020486;28;19913;-38
2022/09/18 01:45:13;;;;;;;;;;;;;;;10.69;100.00;101562.47;5013753;28;20438;-38
2022/09/18 01:47:43;;;;;;;;;;;;;;;10.69;100.00;101567.81;5012009;28;19921;-39
2022/09/18 01:50:10;;;;;;;;;;;;;;;10.70;100.00;101565.00;5017278;28;20411;-39
2022/09/18 01:52:38;;;;;;;;;;;;;;;10.71;100.00;101564.03;5019431;28;20674;-39
2022/09/18 01:55:05;;;;;;;;;;;;;;;10.71;100.00;101560.50;5016767;28;19927;-39
2022/09/18 01:57:40;;;;;;;;;;;;;;;10.70;100.00;101567.66;5010113;28;20329;-39
2022/09/18 02:00:07;;;;;;;;;;;;;;;10.73;100.00;101574.56;5018304;28;19913;-39
2022/09/18 02:02:56;;;;;;;;;;;;;;;10.79;100.00;101569.50;5007930;28;19921;-39
2022/09/18 02:05:24;;;;;;;;;;;;;;;10.83;100.00;101567.38;5013541;28;20003;-38
2022/09/18 02:08:00;;;;;;;;;;;;;;;10.84;100.00;101569.03;5013360;28;20364;-38
2022/09/18 02:10:27;;;;;;;;;;;;;;;10.84;100.00;101561.03;5008749;28;20311;-39
2022/09/18 02:12:55;;;;;;;;;;;;;;;10.85;100.00;101552.03;5019431;28;20280;-39
2022/09/18 02:15:21;;;;;;;;;;;;;;;10.86;100.00;101552.88;5019082;28;20119;-39
2022/09/18 02:17:52;;;;;;;;;;;;;;;10.86;100.00;101552.88;5019195;28;20664;-38
2022/09/18 02:20:23;;;;;;;;;;;;;;;10.84;100.00;101547.66;5016588;28;20427;-39
2022/09/18 02:22:50;;;;;;;;;;;;;;;10.78;100.00;101541.06;5019541;28;19917;-38
2022/09/18 02:25:19;;;;;;;;;;;;;;;10.75;100.00;101535.19;5019578;28;19929;-38
2022/09/18 02:27:45;;;;;;;;;;;;;;;10.73;100.00;101534.50;5018337;28;20309;-40
2022/09/18 02:30:11;;;;;;;;;;;;;;;10.71;100.00;101537.31;5013713;28;19929;-39
2022/09/18 02:32:36;;;;;;;;;;;;;;;10.67;100.00;101527.06;5016057;28;20017;-39
2022/09/18 02:35:02;;;;;;;;;;;;;;;10.63;100.00;101529.16;5017864;28;20103;-39
2022/09/18 02:37:36;;;;;;;;;;;;;;;10.61;100.00;101531.97;5019523;28;20304;-41
2022/09/18 02:40:20;;;;;;;;;;;;;;;10.63;100.00;101527.34;5015840;28;20289;-41
2022/09/18 02:43:04;;;;;;;;;;;;;;;10.68;100.00;101534.09;5015692;28;20391;-40
2022/09/18 02:45:35;;;;;;;;;;;;;;;10.71;100.00;101539.13;5019463;28;19963;-39
2022/09/18 02:48:27;;;;;;;;;;;;;;;10.72;100.00;101544.31;5033555;28;19912;-39
2022/09/18 02:50:57;;;;;;;;;;;;;;;10.77;100.00;101533.22;4995758;28;19937;-38
2022/09/18 02:53:52;;;;;;;;;;;;;;;10.78;100.00;101527.72;5005565;28;19913;-38
2022/09/18 02:56:17;;;;;;;;;;;;;;;10.78;100.00;101526.88;5004418;28;20363;-39
2022/09/18 02:58:46;;;;;;;;;;;;;;;10.76;100.00;101524.34;5013406;28;19913;-38
2022/09/18 03:01:12;;;;;;;;;;;;;;;10.76;100.00;101521.69;5006570;28;19921;-39
2022/09/18 03:03:38;;;;;;;;;;;;;;;10.74;100.00;101518.31;5018585;28;19933;-39
2022/09/18 03:06:04;;;;;;;;;;;;;;;10.73;100.00;101527.31;5017480;28;20323;-40
2022/09/18 03:08:29;;;;;;;;;;;;;;;10.72;100.00;101527.47;5014737;28;19921;-39
2022/09/18 03:10:54;;;;;;;;;;;;;;;10.72;100.00;101522.94;5009715;28;19928;-40
2022/09/18 03:13:20;;;;;;;;;;;;;;;10.74;100.00;101521.00;5019329;28;20019;-39
2022/09/18 03:15:45;;;;;;;;;;;;;;;10.73;100.00;101521.13;5019515;28;19917;-40
2022/09/18 03:18:10;;;;;;;;;;;;;;;10.70;100.00;101510.75;5017100;28;20403;-39
2022/09/18 03:20:35;;;;;;;;;;;;;;;10.74;100.00;101514.78;5013581;28;20023;-40
2022/09/18 03:23:00;;;;;;;;;;;;;;;10.74;100.00;101514.78;5019420;28;20136;-40
2022/09/18 03:25:26;;;;;;;;;;;;;;;10.74;100.00;101507.63;5018615;28;19928;-39
2022/09/18 03:27:54;;;;;;;;;;;;;;;10.76;100.00;101502.13;5019125;28;19917;-41
2022/09/18 03:30:20;;;;;;;;;;;;;;;10.77;100.00;101503.81;5013989;28;19961;-40
2022/09/18 03:32:46;;;;;;;;;;;;;;;10.77;100.00;101506.47;5022303;28;19917;-40
2022/09/18 03:35:11;;;;;;;;;;;;;;;10.78;100.00;101502.84;5009559;28;20299;-39
2022/09/18 03:37:37;;;;;;;;;;;;;;;10.77;100.00;101503.81;5010296;28;19970;-39
2022/09/18 03:40:03;;;;;;;;;;;;;;;10.77;100.00;101507.31;5022185;28;19909;-39
2022/09/18 03:42:28;;;;;;;;;;;;;;;10.78;100.00;101508.19;5022870;28;20387;-39
2022/09/18 03:44:53;;;;;;;;;;;;;;;10.77;100.00;101510.00;5016488;28;19921;-39
2022/09/18 03:47:18;;;;;;;;;;;;;;;10.81;100.00;101505.19;5018191;28;19929;-39
2022/09/18 03:49:44;;;;;;;;;;;;;;;10.82;100.00;101490.84;5019116;28;19956;-40
2022/09/18 03:52:09;;;;;;;;;;;;;;;10.82;100.00;101493.53;5021823;28;20255;-39
2022/09/18 03:54:34;;;;;;;;;;;;;;;10.82;100.00;101493.53;5021526;28;19914;-38
2022/09/18 03:56:59;;;;;;;;;;;;;;;10.82;100.00;101489.00;5020890;28;20075;-39
2022/09/18 03:59:24;;;;;;;;;;;;;;;10.82;100.00;101490.84;5021842;28;19913;-39
2022/09/18 04:01:49;;;;;;;;;;;;;;;10.80;100.00;101493.66;5021469;28;19924;-39
2022/09/18 04:04:15;;;;;;;;;;;;;;;10.79;100.00;101486.66;5019960;28;19974;-39
2022/09/18 04:06:40;;;;;;;;;;;;;;;10.79;100.00;101488.47;5018606;28;20013;-41
2022/09/18 04:09:05;;;;;;;;;;;;;;;10.82;100.00;101489.00;5021422;28;20001;-39
2022/09/18 04:11:30;;;;;;;;;;;;;;;10.82;100.00;101493.53;5020413;28;20403;-39
2022/09/18 04:13:55;;;;;;;;;;;;;;;10.82;100.00;101491.69;5021115;28;19913;-39
2022/09/18 04:16:21;;;;;;;;;;;;;;;10.85;100.00;101495.06;5019232;28;19921;-39
2022/09/18 04:18:47;;;;;;;;;;;;;;;10.86;100.00;101492.22;5020195;28;19917;-39
2022/09/18 04:21:12;;;;;;;;;;;;;;;10.86;100.00;101489.56;5019706;28;19935;-39
2022/09/18 04:23:37;;;;;;;;;;;;;;;10.85;100.00;101484.38;5021915;28;19917;-39
2022/09/18 04:26:08;;;;;;;;;;;;;;;10.86;100.00;101491.41;5021056;28;20392;-40
2022/09/18 04:28:33;;;;;;;;;;;;;;;10.83;100.00;101485.38;5021696;28;19971;-41
2022/09/18 04:30:58;;;;;;;;;;;;;;;10.82;100.00;101486.34;5021217;28;20222;-41
2022/09/18 04:33:26;;;;;;;;;;;;;;;10.82;100.00;101489.00;5020134;28;19913;-40
2022/09/18 04:35:51;;;;;;;;;;;;;;;10.81;100.00;101497.19;5019826;28;19928;-40
2022/09/18 04:38:16;;;;;;;;;;;;;;;10.83;100.00;101492.56;5015335;28;19925;-41
2022/09/18 04:40:42;;;;;;;;;;;;;;;10.83;100.00;101501.41;5020976;28;19923;-39
2022/09/18 04:43:09;;;;;;;;;;;;;;;10.83;100.00;101503.25;5019845;28;19998;-39
2022/09/18 04:45:34;;;;;;;;;;;;;;;10.82;100.00;101496.19;5019533;28;19917;-40
2022/09/18 04:47:59;;;;;;;;;;;;;;;10.83;100.00;101497.91;5009087;28;20023;-41
2022/09/18 04:50:25;;;;;;;;;;;;;;;10.81;100.00;101491.84;5019353;28;19924;-40
2022/09/18 04:52:50;;;;;;;;;;;;;;;10.80;100.00;101492.84;5020886;28;19921;-39
2022/09/18 04:55:15;;;;;;;;;;;;;;;10.78;100.00;101489.47;5020520;28;20316;-40
2022/09/18 04:57:41;;;;;;;;;;;;;;;10.76;100.00;101491.44;5021065;28;20011;-40
2022/09/18 05:00:07;;;;;;;;;;;;;;;10.75;100.00;101492.44;5020561;28;19913;-41
2022/09/18 05:02:32;;;;;;;;;;;;;;;10.74;100.00;101496.94;5020124;28;19945;-39
2022/09/18 05:04:57;;;;;;;;;;;;;;;10.74;100.00;101490.75;5019325;28;19921;-40
2022/09/18 05:07:23;;;;;;;;;;;;;;;10.73;100.00;101500.59;5019340;28;19943;-41
2022/09/18 05:09:49;;;;;;;;;;;;;;;10.75;100.00;101500.44;5015755;28;19917;-39
2022/09/18 05:12:14;;;;;;;;;;;;;;;10.74;100.00;101499.63;5020797;28;19955;-40
2022/09/18 05:14:40;;;;;;;;;;;;;;;10.74;100.00;101494.28;5021001;28;19948;-40
2022/09/18 05:17:05;;;;;;;;;;;;;;;10.74;100.00;101496.09;5017912;28;19917;-40
2022/09/18 05:19:30;;;;;;;;;;;;;;;10.74;100.00;101496.94;5020275;28;20427;-40
2022/09/18 05:21:55;;;;;;;;;;;;;;;10.78;100.00;101498.31;5019968;28;19924;-40
2022/09/18 05:24:20;;;;;;;;;;;;;;;10.80;100.00;101496.34;5019107;28;20036;-41
2022/09/18 05:26:47;;;;;;;;;;;;;;;10.80;100.00;101488.31;5013142;28;20316;-40
2022/09/18 05:29:12;;;;;;;;;;;;;;;10.83;100.00;101500.56;5019147;28;20043;-39
2022/09/18 05:31:37;;;;;;;;;;;;;;;10.83;100.00;101497.91;5020224;28;19979;-39
2022/09/18 05:34:02;;;;;;;;;;;;;;;10.86;100.00;101494.06;5019012;28;20352;-39
2022/09/18 05:36:28;;;;;;;;;;;;;;;10.87;100.00;101495.78;5018969;28;20323;-39
2022/09/18 05:38:53;;;;;;;;;;;;;;;10.89;100.00;101493.78;5016395;28;19917;-42
2022/09/18 05:41:18;;;;;;;;;;;;;;;10.89;100.00;101499.13;5018151;28;20261;-40
2022/09/18 05:43:43;;;;;;;;;;;;;;;10.91;100.00;101500.69;5020385;28;19924;-40
2022/09/18 05:46:09;;;;;;;;;;;;;;;10.92;100.00;101493.50;5019533;28;19921;-39
2022/09/18 05:48:34;;;;;;;;;;;;;;;10.96;100.00;101495.75;5005460;28;19918;-40
2022/09/18 05:50:59;;;;;;;;;;;;;;;10.97;100.00;101501.91;5012349;28;19920;-39
2022/09/18 05:53:24;;;;;;;;;;;;;;;10.99;100.00;101514.13;5018522;28;19917;-40
2022/09/18 05:55:50;;;;;;;;;;;;;;;11.02;100.00;101513.00;5019558;28;19952;-39
2022/09/18 05:58:16;;;;;;;;;;;;;;;11.04;100.00;101511.00;5018918;28;19936;-40
2022/09/18 06:00:43;;;;;;;;;;;;;;;11.04;100.00;101516.38;5014338;28;19917;-40
2022/09/18 06:03:09;;;;;;;;;;;;;;;11.06;100.00;101508.19;5014752;28;19925;-40
2022/09/18 06:05:36;;;;;;;;;;;;;;;11.07;100.00;101492.00;5018238;28;20020;-40
2022/09/18 06:08:02;;;;;;;;;;;;;;;11.10;100.00;101488.19;5017540;28;20283;-39
2022/09/18 06:10:28;;;;;;;;;;;;;;;11.11;100.00;101489.88;5019015;28;20023;-39
2022/09/18 06:13:00;;;;;;;;;;;;;;;11.15;100.00;101489.44;5019591;28;19917;-40
2022/09/18 06:15:26;;;;;;;;;;;;;;;11.22;100.00;101488.81;5019167;28;20068;-40
2022/09/18 06:17:51;;;;;;;;;;;;;;;11.27;100.00;101490.09;5015463;28;19924;-39
2022/09/18 06:20:17;;;;;;;;;;;;;;;11.33;100.00;101496.66;5006161;28;19944;-39
2022/09/18 06:22:42;;;;;;;;;;;;;;;11.38;100.00;101483.66;5019736;28;19917;-40
2022/09/18 06:25:07;;;;;;;;;;;;;;;11.46;100.00;101482.94;5018633;28;19923;-40
2022/09/18 06:27:33;;;;;;;;;;;;;;;11.49;100.00;101490.63;5017659;28;19913;-39
2022/09/18 06:29:58;;;;;;;;;;;;;;;11.54;100.00;101480.31;5011919;28;19968;-40
2022/09/18 06:32:23;;;;;;;;;;;;;;;11.57;100.00;101486.22;5016926;28;20255;-40
2022/09/18 06:34:48;;;;;;;;;;;;;;;11.61;100.00;101485.91;5014590;28;19936;-40
2022/09/18 06:37:14;;;;;;;;;;;;;;;11.64;100.00;101481.09;5001961;28;19949;-41
2022/09/18 06:39:39;;;;;;;;;;;;;;;11.62;100.00;101495.63;5006800;28;19917;-40
2022/09/18 06:42:05;;;;;;;;;;;;;;;11.57;100.00;101498.75;5018132;28;19913;-39
2022/09/18 06:44:31;;;;;;;;;;;;;;;11.54;100.00;101507.94;5004403;28;20471;-39
2022/09/18 06:46:56;;;;;;;;;;;;;;;11.52;100.00;101504.56;5005437;28;20010;-40
2022/09/18 06:49:21;;;;;;;;;;;;;;;11.50;100.00;101517.22;5002753;28;20469;-41
2022/09/18 06:51:47;;;;;;;;;;;;;;;11.48;100.00;101507.69;5007259;28;19924;-40
2022/09/18 06:54:12;;;;;;;;;;;;;;;11.47;100.00;101500.66;4996422;28;20032;-39
2022/09/18 06:56:38;;;;;;;;;;;;;;;11.46;100.00;101483.75;5014885;28;19932;-40
2022/09/18 06:59:03;;;;;;;;;;;;;;;11.46;100.00;101486.44;5015783;28;19909;-40
2022/09/18 07:01:28;;;;;;;;;;;;;;;11.48;100.00;101480.94;5012450;28;20314;-39
2022/09/18 07:03:54;;;;;;;;;;;;;;;11.46;100.00;101480.25;5009258;28;20467;-40
2022/09/18 07:06:19;;;;;;;;;;;;;;;11.56;100.00;101489.88;5008249;28;19921;-39
2022/09/18 07:08:44;;;;;;;;;;;;;;;11.58;100.00;101497.75;5018076;28;20015;-39
2022/09/18 07:11:09;;;;;;;;;;;;;;;11.60;100.00;101497.63;5018367;28;19967;-41
2022/09/18 07:13:36;;;;;;;;;;;;;;;11.62;100.00;101498.28;5018456;28;19934;-40
2022/09/18 07:16:02;;;;;;;;;;;;;;;11.62;100.00;101490.28;5019159;28;20111;-40
2022/09/18 07:18:27;;;;;;;;;;;;;;;11.63;100.00;101508.03;5017617;28;20099;-39
2022/09/18 07:20:52;;;;;;;;;;;;;;;11.62;100.00;101492.94;5015731;28;20368;-40
2022/09/18 07:23:17;;;;;;;;;;;;;;;11.66;100.00;101502.34;5017412;28;19920;-39
2022/09/18 07:25:43;;;;;;;;;;;;;;;11.68;100.00;101492.34;5017082;28;19921;-40
2022/09/18 07:28:09;;;;;;;;;;;;;;;11.69;100.00;101475.28;5018409;28;19921;-41
2022/09/18 07:30:35;;;;;;;;;;;;;;;11.71;100.00;101475.97;5010217;28;19928;-39
2022/09/18 07:33:01;;;;;;;;;;;;;;;11.73;100.00;101474.84;5017922;28;19921;-41
2022/09/18 07:35:27;;;;;;;;;;;;;;;11.79;100.00;101473.38;5007163;28;20372;-40
2022/09/18 07:37:55;;;;;;;;;;;;;;;11.86;100.00;101477.13;5016543;28;19917;-40
2022/09/18 07:40:20;;;;;;;;;;;;;;;11.96;100.00;101474.38;5017083;28;19983;-40
2022/09/18 07:42:46;;;;;;;;;;;;;;;12.04;100.00;101458.38;5019317;28;19952;-40
2022/09/18 07:45:11;;;;;;;;;;;;;;;12.16;100.00;101472.38;5015929;28;20261;-40
2022/09/18 07:47:37;;;;;;;;;;;;;;;12.21;100.00;101464.72;5015905;28;19978;-39
2022/09/18 07:50:02;;;;;;;;;;;;;;;12.24;100.00;101463.56;5012497;28;20398;-41
2022/09/18 07:52:27;;;;;;;;;;;;;;;12.29;100.00;101469.28;5010205;28;19917;-40
2022/09/18 07:54:52;;;;;;;;;;;;;;;12.36;100.00;101469.50;5009951;28;19921;-40
2022/09/18 07:57:17;;;;;;;;;;;;;;;12.48;100.00;101466.38;5016688;28;19931;-40
2022/09/18 07:59:43;;;;;;;;;;;;;;;12.65;100.00;101461.13;5014873;28;20462;-40
2022/09/18 08:02:09;;;;;;;;;;;;;;;12.78;100.00;101474.06;5017609;28;19933;-42
2022/09/18 08:04:34;;;;;;;;;;;;;;;12.77;100.00;101475.91;5015795;28;19960;-39
2022/09/18 08:07:03;;;;;;;;;;;;;;;12.68;100.00;101485.75;5012823;28;19965;-40
2022/09/18 08:09:28;;;;;;;;;;;;;;;12.63;100.00;101481.91;5015959;28;20031;-39
2022/09/18 08:11:53;;;;;;;;;;;;;;;12.58;100.00;101486.88;5018887;28;20007;-39
2022/09/18 08:14:19;;;;;;;;;;;;;;;12.55;100.00;101482.66;5018831;28;19930;-40
2022/09/18 08:16:44;;;;;;;;;;;;;;;12.53;100.00;101481.16;5002408;28;20004;-39
2022/09/18 08:19:09;;;;;;;;;;;;;;;12.56;100.00;101479.00;5007953;28;20429;-42
2022/09/18 08:21:35;;;;;;;;;;;;;;;12.68;100.00;101475.03;5012185;28;20641;-40
2022/09/18 08:24:00;;;;;;;;;;;;;;;12.80;100.00;101474.78;5017824;28;19917;-42
2022/09/18 08:26:25;;;;;;;;;;;;;;;12.92;100.00;101470.81;5014031;28;19980;-40
2022/09/18 08:28:50;;;;;;;;;;;;;;;13.07;100.00;101455.78;5010042;28;19921;-41
2022/09/18 08:31:16;;;;;;;;;;;;;;;13.25;100.00;101465.53;5012761;28;19971;-41
2022/09/18 08:33:41;;;;;;;;;;;;;;;13.34;100.00;101469.97;5011869;28;20008;-40
2022/09/18 08:36:06;;;;;;;;;;;;;;;13.39;100.00;101474.81;5011089;28;19940;-40
2022/09/18 08:38:31;;;;;;;;;;;;;;;13.44;100.00;101467.13;5007933;28;19927;-39
2022/09/18 08:41:00;;;;;;;;;;;;;;;13.45;100.00;101476.88;5015317;28;20265;-39
2022/09/18 08:43:41;;;;;;;;;;;;;;;13.44;100.00;101469.81;5021528;28;19925;-40
2022/09/18 08:46:10;;;;;;;;;;;;;;;13.39;100.00;101464.97;5017736;28;19921;-39
2022/09/18 08:48:44;;;;;;;;;;;;;;;13.44;100.00;101467.13;5015413;28;19998;-42
2022/09/18 08:51:12;;;;;;;;;;;;;;;13.47;100.00;101468.66;5012096;28;20371;-41
2022/09/18 08:53:41;;;;;;;;;;;;;;;13.49;100.00;101475.53;5018556;28;19913;-41
2022/09/18 08:56:11;;;;;;;;;;;;;;;13.54;100.00;101456.25;5017479;28;19920;-40
2022/09/18 08:58:41;;;;;;;;;;;;;;;13.61;100.00;101451.88;5018254;28;19936;-40
2022/09/18 09:01:08;;;;;;;;;;;;;;;13.73;100.00;101468.50;5015775;28;20005;-41
2022/09/18 09:03:37;;;;;;;;;;;;;;;13.78;100.00;101472.38;5012434;28;19921;-40
2022/09/18 09:06:02;;;;;;;;;;;;;;;13.79;100.00;101473.22;5016981;28;20446;-39
2022/09/18 09:08:50;;;;;;;;;;;;;;;13.82;100.00;101480.13;5016308;28;19932;-39
2022/09/18 09:11:22;;;;;;;;;;;;;;;13.66;100.00;101481.75;5017905;28;20091;-39
2022/09/18 09:14:06;;;;;;;;;;;;;;;13.55;100.00;101482.91;5014253;28;19993;-38
2022/09/18 09:16:40;;;;;;;;;;;;;;;13.49;100.00;101488.09;5016824;28;20036;-38
2022/09/18 09:19:20;;;;;;;;;;;;;;;13.45;100.00;101495.66;5012998;28;19917;-38
2022/09/18 09:21:52;;;;;;;;;;;;;;;13.32;100.00;101477.31;5012477;28;19913;-38
2022/09/18 09:24:35;;;;;;;;;;;;;;;13.28;100.00;101489.38;5000895;28;20377;-39
2022/09/18 09:27:20;;;;;;;;;;;;;;;13.32;100.00;101485.38;5010288;28;19928;-39
2022/09/18 09:29:46;;;;;;;;;;;;;;;13.32;100.00;101482.69;5008799;28;19925;-39
2022/09/18 09:32:28;;;;;;;;;;;;;;;13.33;100.00;101475.50;5019050;28;19929;-40
2022/09/18 09:35:00;;;;;;;;;;;;;;;13.30;100.00;101492.72;5013617;28;20272;-40
2022/09/18 09:37:34;;;;;;;;;;;;;;;13.26;100.00;101477.97;5018562;28;19922;-39
2022/09/18 09:40:05;;;;;;;;;;;;;;;13.24;100.00;101462.03;5017090;28;20004;-39
2022/09/18 09:42:38;;;;;;;;;;;;;;;13.31;100.00;101472.94;5018691;28;19917;-39
2022/09/18 09:45:10;;;;;;;;;;;;;;;13.28;100.00;101472.44;5013843;28;19935;-39
2022/09/18 09:47:49;;;;;;;;;;;;;;;13.19;100.00;101458.16;5016785;28;20333;-39
2022/09/18 09:50:35;;;;;;;;;;;;;;;13.20;100.00;101462.50;5010573;28;19917;-41
2022/09/18 09:53:02;;;;;;;;;;;;;;;13.15;100.00;101451.44;5016962;28;19926;-39
2022/09/18 09:55:35;;;;;;;;;;;;;;;13.23;100.00;101446.09;5018287;28;20710;-39
2022/09/18 09:58:06;;;;;;;;;;;;;;;13.30;100.00;101438.22;5015481;28;19952;-40
2022/09/18 10:00:41;;;;;;;;;;;;;;;13.39;100.00;101443.50;5013827;28;19921;-39
2022/09/18 10:03:18;;;;;;;;;;;;;;;13.51;100.00;101440.47;5003942;28;19929;-39
2022/09/18 10:06:02;;;;;;;;;;;;;;;13.63;100.00;101444.53;5007588;28;20032;-41
2022/09/18 10:08:35;;;;;;;;;;;;;;;13.73;100.00;101442.53;5006983;28;19917;-38
2022/09/18 10:11:07;;;;;;;;;;;;;;;13.79;100.00;101444.53;5014500;28;21284;-40
2022/09/18 10:13:36;;;;;;;;;;;;;;;13.90;100.00;101445.19;5014412;28;19937;-39
2022/09/18 10:16:05;;;;;;;;;;;;;;;14.02;100.00;101429.56;5007316;28;19928;-42
2022/09/18 10:18:32;;;;;;;;;;;;;;;14.16;100.00;101435.09;5011752;28;19928;-39
2022/09/18 10:21:02;;;;;;;;;;;;;;;14.28;100.00;101435.59;5005196;28;20649;-40
2022/09/18 10:23:31;;;;;;;;;;;;;;;14.38;100.00;101429.19;5015643;28;19936;-41
2022/09/18 10:26:00;;;;;;;;;;;;;;;14.44;100.00;101431.19;5010510;28;19922;-40
2022/09/18 10:28:28;;;;;;;;;;;;;;;14.46;100.00;101440.75;4998327;28;19918;-39
2022/09/18 10:30:58;;;;;;;;;;;;;;;14.51;100.00;101446.47;5009471;28;20012;-43
2022/09/18 10:33:29;;;;;;;;;;;;;;;14.49;100.00;101442.25;5015507;28;20325;-40
2022/09/18 10:35:59;;;;;;;;;;;;;;;14.46;100.00;101448.81;5015987;28;20577;-40
2022/09/18 10:38:26;;;;;;;;;;;;;;;14.35;100.00;101460.75;5010535;28;20052;-40
2022/09/18 10:40:52;;;;;;;;;;;;;;;14.23;100.00;101461.31;5012689;28;19935;-39
2022/09/18 10:43:17;;;;;;;;;;;;;;;14.09;100.00;101482.47;5010059;28;19917;-39
2022/09/18 10:45:49;;;;;;;;;;;;;;;13.95;100.00;101483.13;5008905;28;19981;-40
2022/09/18 10:48:17;;;;;;;;;;;;;;;13.54;100.00;101461.63;5007224;28;19917;-41
2022/09/18 10:50:52;;;;;;;;;;;;;;;13.00;100.00;101461.94;5002213;28;19944;-41
2022/09/18 10:53:26;;;;;;;;;;;;;;;12.62;100.00;101456.91;5011411;28;19921;-40
2022/09/18 10:55:51;;;;;;;;;;;;;;;12.42;100.00;101460.81;5013012;28;19925;-39
2022/09/18 10:58:25;;;;;;;;;;;;;;;12.38;100.00;101462.16;5008791;28;19948;-40
2022/09/18 11:00:55;;;;;;;;;;;;;;;12.41;100.00;101457.31;5005735;28;19918;-40
2022/09/18 11:03:22;;;;;;;;;;;;;;;12.56;100.00;101451.34;5011828;28;20008;-40
2022/09/18 11:05:49;;;;;;;;;;;;;;;12.78;100.00;101448.13;5021554;28;20380;-39
2022/09/18 11:08:16;;;;;;;;;;;;;;;12.93;100.00;101448.34;5002785;28;19921;-39
2022/09/18 11:10:47;;;;;;;;;;;;;;;13.04;100.00;101456.09;4998184;28;19968;-40
2022/09/18 11:13:18;;;;;;;;;;;;;;;13.11;100.00;101460.81;5004451;28;20027;-40
2022/09/18 11:15:49;;;;;;;;;;;;;;;13.24;100.00;101458.53;5008395;28;20390;-40
2022/09/18 11:18:14;;;;;;;;;;;;;;;13.28;100.00;101467.06;5016308;28;19994;-40
2022/09/18 11:20:41;;;;;;;;;;;;;;;13.31;100.00;101454.16;5012126;28;19960;-38
2022/09/18 11:23:12;;;;;;;;;;;;;;;13.39;100.00;101461.41;5010595;28;19917;-41
2022/09/18 11:25:38;;;;;;;;;;;;;;;13.42;100.00;101461.94;5005728;28;20459;-41
2022/09/18 11:28:19;;;;;;;;;;;;;;;13.50;100.00;101458.44;5002435;28;19972;-40
2022/09/18 11:30:54;;;;;;;;;;;;;;;13.59;100.00;101470.88;4998558;28;20181;-40
2022/09/18 11:33:39;;;;;;;;;;;;;;;13.51;100.00;101449.38;4998172;28;19914;-39
2022/09/18 11:36:06;;;;;;;;;;;;;;;13.55;100.00;101464.13;4992883;28;20261;-41
2022/09/18 11:38:32;;;;;;;;;;;;;;;13.40;100.00;101461.25;4999753;28;19965;-39
2022/09/18 11:40:59;;;;;;;;;;;;;;;13.27;100.00;101468.06;5014072;28;19951;-40
2022/09/18 11:43:25;;;;;;;;;;;;;;;13.17;100.00;101465.50;5014755;28;19921;-40
2022/09/18 11:45:53;;;;;;;;;;;;;;;13.12;100.00;101466.03;5009178;28;19917;-38
2022/09/18 11:48:23;;;;;;;;;;;;;;;13.04;100.00;101474.03;5014368;28;19921;-41
2022/09/18 11:50:51;;;;;;;;;;;;;;;12.95;100.00;101477.66;5004356;28;19917;-39
2022/09/18 11:53:22;;;;;;;;;;;;;;;12.86;100.00;101476.78;5007977;28;19917;-38
2022/09/18 11:55:51;;;;;;;;;;;;;;;12.78;100.00;101484.78;5018858;28;19924;-39
2022/09/18 11:58:22;;;;;;;;;;;;;;;12.72;100.00;101480.94;5004030;28;20339;-38
2022/09/18 12:01:06;;;;;;;;;;;;;;;12.69;100.00;101491.97;5011240;28;19956;-40
2022/09/18 12:03:38;;;;;;;;;;;;;;;12.55;100.00;101480.00;5003044;28;20273;-38
2022/09/18 12:06:14;;;;;;;;;;;;;;;12.57;100.00;101479.84;4999860;28;19927;-39
2022/09/18 12:08:46;;;;;;;;;;;;;;;12.56;100.00;101472.78;5008877;28;19917;-39
2022/09/18 12:11:30;;;;;;;;;;;;;;;12.53;100.00;101487.34;5000917;28;20373;-40
2022/09/18 12:13:58;;;;;;;;;;;;;;;12.52;100.00;101488.34;4999727;28;19957;-39
2022/09/18 12:16:26;;;;;;;;;;;;;;;12.49;100.00;101483.28;4998647;28;19936;-39
2022/09/18 12:18:58;;;;;;;;;;;;;;;12.48;100.00;101481.63;4998521;28;19929;-40
2022/09/18 12:21:31;;;;;;;;;;;;;;;12.50;100.00;101484.97;4998815;28;20007;-40
2022/09/18 12:23:56;;;;;;;;;;;;;;;12.49;100.00;101488.66;4999035;28;19918;-39
2022/09/18 12:26:26;;;;;;;;;;;;;;;12.49;100.00;101483.28;4999214;28;19921;-39
2022/09/18 12:28:55;;;;;;;;;;;;;;;12.54;100.00;101483.66;4998731;28;20040;-39
2022/09/18 12:31:25;;;;;;;;;;;;;;;12.47;100.00;101469.22;4997593;28;19914;-39
2022/09/18 12:33:57;;;;;;;;;;;;;;;12.46;100.00;101468.38;4998626;28;19909;-40